Arnold, Kansas
Current Conditions -  °F | °C
As of 9:15 PM on Saturday 20 Dec 2014 (Local Time) from KHYS Reporting Station
Clear Clear  
Wind Chill: -1°   Ceiling: Unl
Heat Index:   Visibility: 7mi
Dew Point: -2°   Wind: 7mph
Humidity: 75%   Direction: 170°S
Pressure: 30"   Gusts: NA
Location:  38.64°N, 100.05°W
Report Text: KHYS 210315Z AUTO 17006KT 7SM CLR 02/M02 A3000 RMK AO1
Loading
Personal Weather Stations






























Interactive Weather Map New forecast layout! Learn more

10-Day Weather Forecast

Advertisements
Track Severe Weather on mobile